Time;durP1;ratioP1;P1;durP2;ratioP2;P2;SDS_P1;SDS_P2;PMS_P1;PMS_P2;Temp;Humidity;BMP_temperature;BMP_pressure;BME280_temperature;BME280_humidity;BME280_pressure;Samples;Min_cycle;Max_cycle;Signal;HPM_P1;HPM_P2
2021/11/11 00:01:13;;;;;;;28.63;12.88;;;;;;;-142.75;100.00;78074.50;4996435;28;20487;-70
2021/11/11 00:03:38;;;;;;;32.58;14.45;;;;;;;-142.75;100.00;78084.34;4983982;28;20046;-70
2021/11/11 00:06:03;;;;;;;30.75;13.75;;;;;;;-142.75;100.00;78096.16;5000682;28;20021;-70
2021/11/11 00:08:29;;;;;;;31.65;13.82;;;;;;;-142.75;100.00;78088.28;4999068;28;20101;-70
2021/11/11 00:10:54;;;;;;;37.13;14.73;;;;;;;-142.75;100.00;78098.13;5000886;28;20041;-70
2021/11/11 00:13:20;;;;;;;31.90;15.05;;;;;;;-142.75;100.00;78094.19;5001319;28;20121;-72
2021/11/11 00:15:49;;;;;;;32.85;13.63;;;;;;;-142.75;100.00;78106.00;5000432;28;20033;-70
2021/11/11 00:18:15;;;;;;;30.15;14.00;;;;;;;-142.75;100.00;78102.06;4985441;28;20060;-69
2021/11/11 00:20:41;;;;;;;33.55;15.00;;;;;;;-142.75;100.00;78111.91;5000722;28;20026;-70
2021/11/11 00:23:06;;;;;;;31.63;14.25;;;;;;;-142.75;100.00;78109.94;5001427;28;20039;-70
2021/11/11 00:25:32;;;;;;;27.30;14.27;;;;;;;-142.75;100.00;78117.81;5001187;28;20468;-72
2021/11/11 00:27:58;;;;;;;27.52;14.48;;;;;;;-142.75;100.00;78127.66;4986438;28;20468;-70
2021/11/11 00:30:23;;;;;;;;;;;;;;;-142.75;100.00;78121.75;4986473;28;20033;-72
2021/11/11 00:32:50;;;;;;;29.63;13.95;;;;;;;-142.75;100.00;78133.56;4983005;28;20599;-70
2021/11/11 00:35:18;;;;;;;29.48;14.82;;;;;;;-142.75;100.00;78121.75;5001159;28;20010;-70
2021/11/11 00:37:44;;;;;;;29.40;15.23;;;;;;;-142.75;100.00;78129.63;4982597;28;20023;-71
2021/11/11 00:40:10;;;;;;;;;;;;;;;-142.75;100.00;78111.91;4981738;28;20093;-70
2021/11/11 00:42:36;;;;;;;33.50;14.10;;;;;;;-142.75;100.00;78117.81;4981745;28;20282;-70
2021/11/11 00:45:02;;;;;;;27.40;14.45;;;;;;;-142.75;100.00;78111.91;4977468;28;20029;-70
2021/11/11 00:47:27;;;;;;;27.88;14.23;;;;;;;-142.75;100.00;78111.91;4980295;28;20033;-72
2021/11/11 00:49:52;;;;;;;36.17;14.65;;;;;;;-142.75;100.00;78096.16;4991639;28;20067;-71
2021/11/11 00:52:18;;;;;;;35.88;14.60;;;;;;;-142.75;100.00;78106.00;5003704;28;20048;-71
2021/11/11 00:54:43;;;;;;;30.73;14.73;;;;;;;-142.75;100.00;78109.94;4985114;28;20478;-71
2021/11/11 00:57:09;;;;;;;34.97;14.75;;;;;;;-142.75;100.00;78090.25;5002135;28;20053;-70
2021/11/11 00:59:34;;;;;;;31.02;13.85;;;;;;;-142.75;100.00;78082.38;4978950;28;20025;-70
2021/11/11 01:02:02;;;;;;;35.60;14.52;;;;;;;-142.75;100.00;78078.44;4998195;28;20026;-70
2021/11/11 01:04:28;;;;;;;31.98;14.38;;;;;;;-142.75;100.00;78082.38;4979804;28;20467;-70
2021/11/11 01:06:53;;;;;;;32.80;15.67;;;;;;;-142.75;100.00;78082.38;5002037;28;20021;-70
2021/11/11 01:09:18;;;;;;;34.20;14.68;;;;;;;-142.75;100.00;78094.19;4979721;28;20338;-70
2021/11/11 01:11:44;;;;;;;28.92;13.63;;;;;;;-142.75;100.00;78094.19;4997896;28;20014;-70
2021/11/11 01:14:09;;;;;;;25.17;12.27;;;;;;;-142.75;100.00;78096.16;5004007;28;20029;-70
2021/11/11 01:16:34;;;;;;;29.75;14.55;;;;;;;-142.75;100.00;78109.94;4999662;28;20022;-72
2021/11/11 01:19:00;;;;;;;33.60;15.00;;;;;;;-142.75;100.00;78121.75;4979451;28;20081;-71
2021/11/11 01:21:25;;;;;;;31.70;14.32;;;;;;;-142.75;100.00;78109.94;4998137;28;20057;-70
2021/11/11 01:23:50;;;;;;;23.98;14.57;;;;;;;-142.75;100.00;78107.97;4982173;28;20376;-69
2021/11/11 01:26:16;;;;;;;32.45;15.27;;;;;;;-142.75;100.00;78102.06;4998884;28;20503;-70
2021/11/11 01:28:41;;;;;;;32.30;15.02;;;;;;;-142.75;100.00;78094.19;4999760;28;20033;-71
2021/11/11 01:31:07;;;;;;;31.35;14.73;;;;;;;-142.75;100.00;78106.00;4998167;28;20037;-71
2021/11/11 01:33:32;;;;;;;33.88;15.20;;;;;;;-142.75;100.00;78094.19;4998528;28;20021;-71
2021/11/11 01:35:59;;;;;;;34.97;14.80;;;;;;;-142.75;100.00;78094.19;4997949;28;20025;-70
2021/11/11 01:38:24;;;;;;;;;;;;;;;-142.75;100.00;78102.06;4995797;28;20030;-71
2021/11/11 01:40:50;;;;;;;30.35;14.45;;;;;;;-142.75;100.00;78092.22;5002060;28;19917;-68
2021/11/11 01:43:15;;;;;;;31.70;14.52;;;;;;;-142.75;100.00;78090.25;4986075;28;20083;-70
2021/11/11 01:45:44;;;;;;;37.03;15.43;;;;;;;-142.75;100.00;78084.34;4983631;28;20018;-71
2021/11/11 01:48:13;;;;;;;30.23;15.07;;;;;;;-142.75;100.00;78106.00;4986192;28;20033;-70
2021/11/11 01:50:40;;;;;;;29.95;14.88;;;;;;;-142.75;100.00;78107.97;4983116;28;20026;-72
2021/11/11 01:53:09;;;;;;;32.70;15.93;;;;;;;-142.75;100.00;78111.91;4982166;28;20025;-70
2021/11/11 01:55:35;;;;;;;29.85;14.65;;;;;;;-142.75;100.00;78098.13;5001425;28;20025;-69
2021/11/11 01:58:01;;;;;;;31.90;15.68;;;;;;;-142.75;100.00;78102.06;5002137;28;20104;-70
2021/11/11 02:00:39;;;;;;;31.85;15.82;;;;;;;-142.75;100.00;78100.09;4982410;28;20612;-69
2021/11/11 02:03:06;;;;;;;34.05;15.73;;;;;;;-142.75;100.00;78107.97;5001067;28;20020;-70
2021/11/11 02:05:33;;;;;;;32.85;15.88;;;;;;;-142.75;100.00;78092.22;4995915;28;20042;-71
2021/11/11 02:07:59;;;;;;;34.65;15.45;;;;;;;-142.75;100.00;78098.13;5000508;28;20026;-70
2021/11/11 02:10:26;;;;;;;34.53;16.30;;;;;;;-142.75;100.00;78106.00;5002272;28;20374;-70
2021/11/11 02:12:52;;;;;;;32.50;15.80;;;;;;;-142.75;100.00;78107.97;4996077;28;20029;-70
2021/11/11 02:15:19;;;;;;;36.15;16.58;;;;;;;-142.75;100.00;78106.00;5002550;28;20022;-70
2021/11/11 02:17:45;;;;;;;35.45;15.35;;;;;;;-142.75;100.00;78090.25;4997444;28;20029;-70
2021/11/11 02:20:15;;;;;;;;;;;;;;;-142.75;100.00;78088.28;5000071;28;20020;-69
2021/11/11 02:22:41;;;;;;;37.88;16.63;;;;;;;-142.75;100.00;78090.25;4998303;28;19909;-69
2021/11/11 02:25:17;;;;;;;;;;;;;;;-142.75;100.00;78102.06;4998300;28;20424;-70
2021/11/11 02:27:44;;;;;;;33.45;15.88;;;;;;;-142.75;100.00;78106.00;4993376;28;19988;-69
2021/11/11 02:30:13;;;;;;;31.02;15.52;;;;;;;-142.75;100.00;78113.88;5003201;28;20430;-70
2021/11/11 02:32:40;;;;;;;36.13;16.35;;;;;;;-142.75;100.00;78115.84;4989543;28;20018;-70
2021/11/11 02:35:08;;;;;;;33.85;16.63;;;;;;;-142.75;100.00;78113.88;5001102;28;20023;-69
2021/11/11 02:37:34;;;;;;;34.22;16.45;;;;;;;-142.75;100.00;78121.75;4997014;28;20072;-69
2021/11/11 02:40:00;;;;;;;;;;;;;;;-142.75;100.00;78125.69;4997182;28;20030;-68
2021/11/11 02:42:27;;;;;;;37.97;17.13;;;;;;;-142.75;100.00;78135.53;4982126;28;19909;-69
2021/11/11 02:44:57;;;;;;;31.00;14.90;;;;;;;-142.75;100.00;78131.59;4996620;28;20015;-69
2021/11/11 02:47:22;;;;;;;35.65;16.40;;;;;;;-142.75;100.00;78145.38;4984023;28;20064;-68
2021/11/11 02:49:48;;;;;;;35.20;16.70;;;;;;;-142.75;100.00;78149.31;4997344;28;20061;-69
2021/11/11 02:52:13;;;;;;;35.70;15.18;;;;;;;-142.75;100.00;78149.31;4999477;28;20060;-69
2021/11/11 02:54:40;;;;;;;35.65;17.65;;;;;;;-142.75;100.00;78145.38;4998819;28;20014;-69
2021/11/11 02:57:25;;;;;;;35.42;16.02;;;;;;;-142.75;100.00;78139.47;5006147;28;20026;-69
2021/11/11 02:59:54;;;;;;;30.38;15.07;;;;;;;-142.75;100.00;78127.66;4984806;28;20364;-69
2021/11/11 03:02:31;;;;;;;35.03;16.60;;;;;;;-142.75;100.00;78133.56;5000416;28;20109;-69
2021/11/11 03:04:58;;;;;;;35.33;16.52;;;;;;;-142.75;100.00;78133.56;5000115;28;20037;-70
2021/11/11 03:07:25;;;;;;;34.50;16.63;;;;;;;-142.75;100.00;78129.63;5003070;28;20448;-70
2021/11/11 03:09:51;;;;;;;37.13;16.05;;;;;;;-142.75;100.00;78135.53;5000146;28;20049;-68
2021/11/11 03:12:16;;;;;;;;;;;;;;;-142.75;100.00;78127.66;5003745;28;20042;-73
2021/11/11 03:14:43;;;;;;;35.88;16.70;;;;;;;-142.75;100.00;78141.44;5001567;22;19904;-67
2021/11/11 03:17:09;;;;;;;39.75;17.70;;;;;;;-142.75;100.00;78131.59;5031524;28;20120;-67
2021/11/11 03:19:35;;;;;;;33.90;16.15;;;;;;;-142.75;100.00;78129.63;5031747;28;20013;-66
2021/11/11 03:22:06;;;;;;;32.30;16.45;;;;;;;-142.75;100.00;78131.59;5031008;28;20497;-66
2021/11/11 03:24:37;;;;;;;35.20;16.70;;;;;;;-142.75;100.00;78127.66;5013888;28;20041;-66
2021/11/11 03:27:04;;;;;;;38.60;16.65;;;;;;;-142.75;100.00;78129.63;5032403;28;20422;-66
2021/11/11 03:29:29;;;;;;;33.55;15.93;;;;;;;-142.75;100.00;78149.31;5031529;28;20021;-66
2021/11/11 03:31:55;;;;;;;35.13;16.92;;;;;;;-142.75;100.00;78137.50;5030899;28;20025;-66
2021/11/11 03:34:23;;;;;;;44.58;18.10;;;;;;;-142.75;100.00;78145.38;5031648;28;20028;-66
2021/11/11 03:36:51;;;;;;;39.30;17.23;;;;;;;-142.75;100.00;78141.44;5031765;28;20599;-66
2021/11/11 03:39:18;;;;;;;35.42;17.08;;;;;;;-142.75;100.00;78141.44;5031168;28;20033;-66
2021/11/11 03:41:43;;;;;;;;;;;;;;;-142.75;100.00;78137.50;5013307;28;20021;-66
2021/11/11 03:44:09;;;;;;;35.72;16.35;;;;;;;-142.75;100.00;78141.44;5031386;28;19966;-66
2021/11/11 03:46:34;;;;;;;39.15;17.67;;;;;;;-142.75;100.00;78145.38;5031460;28;20052;-66
2021/11/11 03:49:00;;;;;;;37.25;17.15;;;;;;;-142.75;100.00;78143.41;5031388;28;20013;-66
2021/11/11 03:51:25;;;;;;;41.05;17.73;;;;;;;-142.75;100.00;78155.22;5030472;28;20032;-66
2021/11/11 03:53:52;;;;;;;36.65;17.70;;;;;;;-142.75;100.00;78143.41;5031168;28;20049;-66
2021/11/11 03:56:18;;;;;;;37.58;17.40;;;;;;;-142.75;100.00;78149.31;5013738;28;20075;-66
2021/11/11 03:58:45;;;;;;;;;;;;;;;-142.75;100.00;78149.31;5032237;28;20024;-66
2021/11/11 04:01:12;;;;;;;30.85;15.77;;;;;;;-142.75;100.00;78151.28;5030456;28;19962;-66
2021/11/11 04:03:37;;;;;;;41.50;17.75;;;;;;;-142.75;100.00;78159.16;5031131;28;20475;-66
2021/11/11 04:06:02;;;;;;;37.78;17.23;;;;;;;-142.75;100.00;78165.06;5012300;28;20036;-66
2021/11/11 04:08:29;;;;;;;40.03;17.17;;;;;;;-142.75;100.00;78178.84;5030966;28;20025;-66
2021/11/11 04:10:55;;;;;;;33.20;16.35;;;;;;;-142.75;100.00;78178.84;5029927;28;20359;-66
2021/11/11 04:13:21;;;;;;;34.75;17.25;;;;;;;-142.75;100.00;78178.84;5030924;28;20028;-66
2021/11/11 04:15:46;;;;;;;37.08;18.30;;;;;;;-142.75;100.00;78169.00;5030947;28;20029;-66
2021/11/11 04:18:11;;;;;;;32.17;16.58;;;;;;;-142.75;100.00;78161.13;5030618;28;20025;-66
2021/11/11 04:20:37;;;;;;;39.53;17.27;;;;;;;-142.75;100.00;78172.94;5030042;28;20032;-67
2021/11/11 04:23:03;;;;;;;33.08;17.05;;;;;;;-142.75;100.00;78159.16;5044664;28;20020;-67
2021/11/11 04:25:41;;;;;;;32.58;17.45;;;;;;;-142.75;100.00;78161.13;5049957;28;20100;-66
2021/11/11 04:28:16;;;;;;;44.50;19.83;;;;;;;-142.75;100.00;78163.09;5051262;28;20052;-66
2021/11/11 04:30:44;;;;;;;32.33;17.38;;;;;;;-142.75;100.00;78163.09;5049466;28;20106;-66
2021/11/11 04:33:11;;;;;;;36.03;17.20;;;;;;;-142.75;100.00;78157.19;5050047;28;20056;-66
2021/11/11 04:35:38;;;;;;;39.03;18.15;;;;;;;-142.75;100.00;78172.94;5031759;28;20028;-66
2021/11/11 04:46:02;;;;;;;33.33;17.20;;;;;;;-142.75;100.00;78165.06;5044772;28;20103;-66
2021/11/11 05:04:27;;;;;;;42.42;18.38;;;;;;;-142.75;100.00;78182.81;5032605;28;20452;-66
2021/11/11 05:06:53;;;;;;;;;;;;;;;-142.75;100.00;78194.63;5050118;28;20147;-65
2021/11/11 05:09:18;;;;;;;39.47;17.60;;;;;;;-142.75;100.00;78196.59;5049960;28;20365;-67
2021/11/11 05:11:43;;;;;;;37.92;17.73;;;;;;;-142.75;100.00;78194.63;5013144;28;20041;-66
2021/11/11 05:14:09;;;;;;;36.92;18.10;;;;;;;-142.75;100.00;78196.59;5029592;28;20475;-66
2021/11/11 05:16:34;;;;;;;36.53;17.95;;;;;;;-142.75;100.00;78196.59;5029520;28;20013;-66
2021/11/11 05:18:59;;;;;;;38.05;18.42;;;;;;;-142.75;100.00;78204.47;5011993;28;20411;-65
2021/11/11 05:21:25;;;;;;;36.10;18.87;;;;;;;-142.75;100.00;78196.59;5028711;28;20047;-66
2021/11/11 05:23:50;;;;;;;36.10;18.63;;;;;;;-142.75;100.00;78192.66;5029462;28;20533;-66
2021/11/11 05:26:16;;;;;;;41.40;19.67;;;;;;;-142.75;100.00;78188.72;5031070;28;20287;-66
2021/11/11 05:28:42;;;;;;;41.30;19.83;;;;;;;-142.75;100.00;78180.81;5021944;28;20021;-66
2021/11/11 05:31:07;;;;;;;40.95;17.90;;;;;;;-142.75;100.00;78172.94;5028743;28;20466;-66
2021/11/11 05:33:32;;;;;;;41.80;18.58;;;;;;;-142.75;100.00;78172.94;5029312;28;20021;-66
2021/11/11 05:35:58;;;;;;;43.33;19.38;;;;;;;-142.75;100.00;78172.94;5011569;28;20026;-67
2021/11/11 05:38:23;;;;;;;39.20;17.85;;;;;;;-142.75;100.00;78169.00;5029534;28;20017;-66
2021/11/11 05:40:48;;;;;;;36.17;18.42;;;;;;;-142.75;100.00;78161.13;5037119;28;20053;-66
2021/11/11 05:43:14;;;;;;;36.03;19.17;;;;;;;-142.75;100.00;78159.16;5031507;28;20111;-66
2021/11/11 05:45:39;;;;;;;41.10;18.83;;;;;;;-142.75;100.00;78145.38;5049036;28;20283;-66
2021/11/11 05:48:04;;;;;;;39.90;20.00;;;;;;;-142.75;100.00;78147.34;5048653;28;20029;-66
2021/11/11 05:50:30;;;;;;;34.78;17.67;;;;;;;-142.75;100.00;78149.31;5030272;28;20017;-66
2021/11/11 05:52:55;;;;;;;35.40;18.15;;;;;;;-142.75;100.00;78141.44;5031160;28;20024;-66
2021/11/11 05:55:22;;;;;;;39.13;19.42;;;;;;;-142.75;100.00;78149.31;5048507;28;20043;-66
2021/11/11 05:57:47;;;;;;;31.13;17.92;;;;;;;-142.75;100.00;78159.16;5049778;28;20017;-66
2021/11/11 06:00:16;;;;;;;38.70;19.00;;;;;;;-142.75;100.00;78151.28;5048171;28;20055;-66
2021/11/11 06:02:45;;;;;;;35.10;17.75;;;;;;;-142.75;100.00;78153.25;5048771;28;20099;-66
2021/11/11 06:05:11;;;;;;;32.10;17.20;;;;;;;-142.75;100.00;78153.25;5048667;28;20496;-66
2021/11/11 06:07:36;;;;;;;40.10;17.33;;;;;;;-142.75;100.00;78151.28;5048602;28;20048;-66
2021/11/11 06:10:04;;;;;;;38.50;18.73;;;;;;;-142.75;100.00;78157.19;5047718;28;20039;-66
2021/11/11 06:12:30;;;;;;;38.50;20.33;;;;;;;-142.75;100.00;78149.31;5048346;28;20036;-66
2021/11/11 06:14:55;;;;;;;33.53;18.15;;;;;;;-142.75;100.00;78159.16;5048590;28;20490;-66
2021/11/11 06:17:20;;;;;;;39.50;17.75;;;;;;;-142.75;100.00;78178.84;5048368;28;20098;-66
2021/11/11 06:19:48;;;;;;;34.83;17.65;;;;;;;-142.75;100.00;78163.09;5048032;28;20021;-66
2021/11/11 06:22:14;;;;;;;36.25;17.50;;;;;;;-142.75;100.00;78180.81;5048800;28;20020;-66
2021/11/11 06:24:39;;;;;;;39.83;19.17;;;;;;;-142.75;100.00;78172.94;5048152;28;20040;-66
2021/11/11 06:27:05;;;;;;;34.85;17.48;;;;;;;-142.75;100.00;78178.84;5042195;28;20467;-66
2021/11/11 06:29:30;;;;;;;36.33;18.77;;;;;;;-142.75;100.00;78188.72;5030935;28;20040;-66
2021/11/11 06:31:55;;;;;;;38.80;19.10;;;;;;;-142.75;100.00;78186.75;5034610;28;20546;-66
2021/11/11 06:34:21;;;;;;;35.10;19.02;;;;;;;-142.75;100.00;78180.81;5035068;28;20029;-66
2021/11/11 06:36:46;;;;;;;32.65;17.85;;;;;;;-142.75;100.00;78184.78;5017507;28;20025;-66
2021/11/11 06:39:11;;;;;;;43.58;19.30;;;;;;;-142.75;100.00;78194.63;5052448;28;20023;-65
2021/11/11 06:41:36;;;;;;;38.10;19.83;;;;;;;-142.75;100.00;78190.69;5053776;28;20491;-66
2021/11/11 06:44:03;;;;;;;41.00;19.57;;;;;;;-142.75;100.00;78188.72;5054148;28;20305;-66
2021/11/11 06:46:28;;;;;;;;;;;;;;;-142.75;100.00;78192.66;5054735;28;20271;-66
2021/11/11 06:48:53;;;;;;;38.58;18.67;;;;;;;-142.75;100.00;78196.59;5036296;28;19909;-66
2021/11/11 06:51:19;;;;;;;41.90;19.38;;;;;;;-142.75;100.00;78194.63;5053604;28;20025;-67
2021/11/11 06:53:44;;;;;;;39.83;19.23;;;;;;;-142.75;100.00;78192.66;5054954;28;20033;-66
2021/11/11 06:56:09;;;;;;;44.08;19.33;;;;;;;-142.75;100.00;78196.59;5044081;28;20017;-66
2021/11/11 06:58:35;;;;;;;45.30;19.92;;;;;;;-142.75;100.00;78214.31;5034927;28;20022;-66
2021/11/11 07:01:02;;;;;;;43.92;20.00;;;;;;;-142.75;100.00;78220.22;5033546;28;20441;-66
2021/11/11 07:03:29;;;;;;;44.08;19.80;;;;;;;-142.75;100.00;78228.09;5034007;28;20025;-66
2021/11/11 07:05:55;;;;;;;36.70;19.95;;;;;;;-142.75;100.00;78224.16;5034212;28;20497;-66
2021/11/11 07:08:20;;;;;;;;;;;;;;;-142.75;100.00;78220.22;5034696;28;20171;-66
2021/11/11 07:10:49;;;;;;;41.38;21.83;;;;;;;-142.75;100.00;78216.28;5033447;28;20413;-66
2021/11/11 07:13:15;;;;;;;40.63;20.48;;;;;;;-142.75;100.00;78216.28;5034425;28;20386;-66
2021/11/11 07:15:41;;;;;;;;;;;;;;;-142.75;100.00;78208.41;5034231;28;20025;-66
2021/11/11 07:18:08;;;;;;;40.60;19.08;;;;;;;-142.75;100.00;78222.19;5034053;28;19916;-66
2021/11/11 07:20:34;;;;;;;37.17;19.90;;;;;;;-142.75;100.00;78224.16;5033215;28;20029;-66
2021/11/11 07:23:04;;;;;;;39.70;20.58;;;;;;;-142.75;100.00;78218.25;5033878;28;20022;-66
2021/11/11 07:25:31;;;;;;;37.63;19.10;;;;;;;-142.75;100.00;78214.31;5033944;28;20029;-66
2021/11/11 07:27:57;;;;;;;43.30;20.40;;;;;;;-142.75;100.00;78204.47;5034469;28;20022;-66
2021/11/11 07:30:24;;;;;;;38.50;20.33;;;;;;;-142.75;100.00;78196.59;5033370;28;20037;-65
2021/11/11 07:32:51;;;;;;;37.70;19.40;;;;;;;-142.75;100.00;78198.56;5033714;28;20104;-67
2021/11/11 07:35:17;;;;;;;41.53;20.92;;;;;;;-142.75;100.00;78196.59;5034332;28;20025;-66
2021/11/11 07:37:44;;;;;;;41.90;20.77;;;;;;;-142.75;100.00;78180.81;5034272;28;20429;-66
2021/11/11 07:40:11;;;;;;;35.90;19.40;;;;;;;-142.75;100.00;78176.88;5050950;28;20027;-66
2021/11/11 07:42:37;;;;;;;38.88;21.52;;;;;;;-142.75;100.00;78170.97;5049474;28;20025;-66
2021/11/11 07:45:06;;;;;;;36.28;19.92;;;;;;;-142.75;100.00;78178.84;5050004;28;20028;-66
2021/11/11 07:47:32;;;;;;;43.20;21.27;;;;;;;-142.75;100.00;78170.97;5049839;28;20028;-67
2021/11/11 07:49:58;;;;;;;42.83;21.60;;;;;;;-142.75;100.00;78165.06;5049176;28;20021;-67
2021/11/11 07:52:25;;;;;;;43.78;21.65;;;;;;;-142.75;100.00;78163.09;5049754;28;20039;-67
2021/11/11 07:54:51;;;;;;;35.35;19.42;;;;;;;-142.75;100.00;78165.06;5049662;28;20028;-66
2021/11/11 07:57:21;;;;;;;36.10;21.35;;;;;;;-142.75;100.00;78161.13;5050277;28;20041;-67
2021/11/11 07:59:48;;;;;;;40.10;20.75;;;;;;;-142.75;100.00;78153.25;5048856;28;20029;-67
2021/11/11 08:02:14;;;;;;;36.88;20.58;;;;;;;-142.75;100.00;78157.19;5029485;28;20029;-67
2021/11/11 08:04:39;;;;;;;41.85;21.10;;;;;;;-142.75;100.00;78149.31;5047755;28;20025;-66
2021/11/11 08:07:05;;;;;;;44.72;21.42;;;;;;;-142.75;100.00;78149.31;5048254;28;20036;-67
2021/11/11 08:09:30;;;;;;;41.92;21.58;;;;;;;-142.75;100.00;78163.09;5047982;28;20055;-67
2021/11/11 08:11:55;;;;;;;40.17;22.90;;;;;;;-142.75;100.00;78143.41;5047107;28;20100;-67
2021/11/11 08:14:21;;;;;;;45.72;23.75;;;;;;;-142.75;100.00;78147.34;5048044;28;20440;-67
2021/11/11 08:16:46;;;;;;;40.85;23.05;;;;;;;-142.75;100.00;78143.41;5047492;28;20032;-67
2021/11/11 08:19:11;;;;;;;38.83;21.45;;;;;;;-142.75;100.00;78129.63;5047705;28;20039;-67
2021/11/11 08:21:36;;;;;;;42.78;22.48;;;;;;;-142.75;100.00;78125.69;5046851;28;20043;-67
2021/11/11 08:24:02;;;;;;;40.22;22.38;;;;;;;-142.75;100.00;78102.06;5047226;28;20025;-67
2021/11/11 08:26:28;;;;;;;43.15;22.70;;;;;;;-142.75;100.00;78094.19;5047591;28;20017;-68
2021/11/11 08:28:53;;;;;;;41.17;21.98;;;;;;;-142.75;100.00;78092.22;5029971;28;20028;-67
2021/11/11 08:31:18;;;;;;;44.53;24.02;;;;;;;-142.75;100.00;78088.28;5046882;28;20067;-67
2021/11/11 08:33:44;;;;;;;48.78;24.27;;;;;;;-142.75;100.00;78090.25;5047565;28;20096;-67
2021/11/11 08:36:10;;;;;;;42.95;23.70;;;;;;;-142.75;100.00;78078.44;5047537;28;20024;-67
2021/11/11 08:38:35;;;;;;;44.40;24.52;;;;;;;-142.75;100.00;78092.22;5047410;28;20366;-67
2021/11/11 08:41:01;;;;;;;40.28;22.65;;;;;;;-142.75;100.00;78078.44;5046632;28;20047;-66
2021/11/11 08:43:26;;;;;;;41.25;23.40;;;;;;;-142.75;100.00;78086.31;5045317;28;21096;-66
2021/11/11 08:45:52;;;;;;;42.25;22.55;;;;;;;-142.75;100.00;78096.16;5047060;28;20024;-66
2021/11/11 08:48:18;;;;;;;44.72;22.60;;;;;;;-142.75;100.00;78086.31;5047822;28;20025;-66
2021/11/11 08:50:44;;;;;;;40.10;23.02;;;;;;;-142.75;100.00;78090.25;5046373;28;20059;-66
2021/11/11 08:53:12;;;;;;;45.30;23.30;;;;;;;-142.75;100.00;78092.22;5046807;28;20049;-66
2021/11/11 08:55:37;;;;;;;34.97;21.20;;;;;;;-142.75;100.00;78082.38;5046745;28;20009;-66
2021/11/11 08:58:05;;;;;;;43.05;22.08;;;;;;;-142.75;100.00;78072.53;5047333;28;20028;-66
2021/11/11 09:00:34;;;;;;;40.75;22.77;;;;;;;-142.75;100.00;78070.56;5046318;28;20062;-66
2021/11/11 09:03:01;;;;;;;47.75;23.25;;;;;;;-142.75;100.00;78076.47;5046948;28;20048;-66
2021/11/11 09:05:31;;;;;;;39.63;22.92;;;;;;;-142.75;100.00;78078.44;5046544;28;20549;-65
2021/11/11 09:07:58;;;;;;;40.28;23.13;;;;;;;-142.75;100.00;78066.63;5029181;28;20021;-66
2021/11/11 09:10:24;;;;;;;40.47;21.75;;;;;;;-142.75;100.00;78078.44;5039474;28;20394;-65
2021/11/11 09:12:51;;;;;;;38.47;21.85;;;;;;;-142.75;100.00;78082.38;5026956;28;20037;-66
2021/11/11 09:15:18;;;;;;;43.63;23.52;;;;;;;-142.75;100.00;78076.47;5027022;28;20033;-66
2021/11/11 09:17:44;;;;;;;41.40;24.40;;;;;;;-142.75;100.00;78084.34;5026805;28;20036;-66
2021/11/11 09:20:13;;;;;;;42.78;23.50;;;;;;;-142.75;100.00;78074.50;5026045;28;20378;-66
2021/11/11 09:22:39;;;;;;;43.08;24.98;;;;;;;-142.75;100.00;78056.78;5026522;28;20028;-66
2021/11/11 09:25:06;;;;;;;45.28;25.20;;;;;;;-142.75;100.00;78058.72;5026761;28;20048;-66
2021/11/11 09:27:33;;;;;;;44.75;27.30;;;;;;;-142.75;100.00;78082.38;5026927;28;20104;-66
2021/11/11 09:29:59;;;;;;;47.15;26.13;;;;;;;-142.75;100.00;78084.34;5042144;28;20569;-66
2021/11/11 09:32:24;;;;;;;46.67;24.80;;;;;;;-142.75;100.00;78086.31;5031093;28;20530;-67
2021/11/11 09:34:50;;;;;;;38.70;24.80;;;;;;;-142.75;100.00;78090.25;5026496;28;20151;-67
2021/11/11 09:37:15;;;;;;;44.75;25.48;;;;;;;-142.75;100.00;78076.47;5026958;28;20020;-66
2021/11/11 09:39:41;;;;;;;44.65;26.40;;;;;;;-142.75;100.00;78076.47;5025917;28;20040;-66
2021/11/11 09:42:07;;;;;;;43.60;25.35;;;;;;;-142.75;100.00;78054.81;5026133;28;20032;-68
2021/11/11 09:44:32;;;;;;;47.10;26.75;;;;;;;-142.75;100.00;78068.59;5045835;22;20037;-66
2021/11/11 09:46:58;;;;;;;43.22;26.42;;;;;;;-142.75;100.00;78074.50;5030409;28;20033;-65
2021/11/11 09:49:24;;;;;;;47.75;27.50;;;;;;;-142.75;100.00;78078.44;5039012;28;20024;-69
2021/11/11 09:51:52;;;;;;;45.30;27.15;;;;;;;-142.75;100.00;78078.44;5037904;28;20467;-68
2021/11/11 09:58:34;;;;;;;46.90;27.02;;;;;;;-142.75;100.00;78088.28;5011115;28;20018;-70
2021/11/11 09:59:49;;;;;;;48.70;26.35;;;;;;;-142.75;100.00;78092.22;5035347;28;20025;-69
2021/11/11 10:02:15;;;;;;;48.13;27.95;;;;;;;-142.75;100.00;78078.44;5030420;28;20022;-67
2021/11/11 10:04:40;;;;;;;44.85;27.08;;;;;;;-142.75;100.00;78076.47;5042102;28;20723;-69
2021/11/11 10:07:06;;;;;;;43.85;26.35;;;;;;;-142.75;100.00;78080.41;5034106;28;20029;-70
2021/11/11 10:09:31;;;;;;;44.47;25.70;;;;;;;-142.75;100.00;78096.16;5042543;28;20020;-69
2021/11/11 10:12:06;;;;;;;48.42;26.38;;;;;;;-142.75;100.00;78086.31;5035377;28;20028;-69
2021/11/11 10:14:34;;;;;;;53.80;29.00;;;;;;;-142.75;100.00;78084.34;5035859;28;20666;-69
2021/11/11 10:17:11;;;;;;;44.65;26.48;;;;;;;-142.75;100.00;78094.19;5024544;28;20033;-70
2021/11/11 10:19:41;;;;;;;47.50;26.23;;;;;;;-142.75;100.00;78115.84;5043607;28;20060;-70
2021/11/11 10:22:21;;;;;;;46.65;26.33;;;;;;;-142.75;100.00;78125.69;5024409;28;20028;-70
2021/11/11 10:24:54;;;;;;;48.65;27.63;;;;;;;-142.75;100.00;78115.84;5022043;28;20462;-68
2021/11/11 10:28:06;;;;;;;46.33;26.95;;;;;;;-142.75;100.00;78102.06;5031147;28;20144;-72
2021/11/11 10:30:13;;;;;;;49.42;26.92;;;;;;;-142.75;100.00;78117.81;5013950;28;20022;-69
2021/11/11 10:32:42;;;;;;;48.90;27.33;;;;;;;-142.75;100.00;78123.72;5036460;28;20139;-69
2021/11/11 10:35:18;;;;;;;50.47;27.17;;;;;;;-142.75;100.00;78119.78;5011120;28;20594;-70
2021/11/11 10:38:06;;;;;;;50.45;28.15;;;;;;;-142.75;100.00;78125.69;5029753;28;20032;-70
2021/11/11 10:40:35;;;;;;;50.38;27.77;;;;;;;-142.75;100.00;78115.84;5017583;28;20044;-69
2021/11/11 10:43:05;;;;;;;51.40;27.95;;;;;;;-142.75;100.00;78090.25;5038910;28;20028;-71
2021/11/11 10:45:34;;;;;;;51.58;28.30;;;;;;;-142.75;100.00;78102.06;5024163;28;20024;-69
2021/11/11 10:48:02;;;;;;;47.83;27.08;;;;;;;-142.75;100.00;78080.41;5033994;28;20053;-69
2021/11/11 10:50:29;;;;;;;44.88;26.33;;;;;;;-142.75;100.00;78070.56;5041713;28;20033;-69
2021/11/11 10:52:58;;;;;;;50.83;27.77;;;;;;;-142.75;100.00;78072.53;5031385;28;20025;-68
2021/11/11 10:55:35;;;;;;;54.33;27.20;;;;;;;-142.75;100.00;78088.28;5032266;28;20100;-68
2021/11/11 10:58:16;;;;;;;50.95;26.90;;;;;;;-142.75;100.00;78082.38;5037977;28;20059;-69
2021/11/11 11:00:48;;;;;;;54.97;29.13;;;;;;;-142.75;100.00;78078.44;5029001;28;20025;-67
2021/11/11 11:03:23;;;;;;;58.85;29.73;;;;;;;-142.75;100.00;78094.19;5037925;28;20026;-67
2021/11/11 11:06:01;;;;;;;56.58;31.52;;;;;;;-142.75;100.00;78113.88;5046131;28;20017;-72
2021/11/11 11:08:33;;;;;;;57.33;30.73;;;;;;;-142.75;100.00;78106.00;5046391;28;20481;-69
2021/11/11 11:11:07;;;;;;;60.83;30.90;;;;;;;-142.75;100.00;78098.13;5041109;28;20108;-70
2021/11/11 11:13:39;;;;;;;62.58;32.22;;;;;;;-142.75;100.00;78109.94;5036640;28;20051;-69
2021/11/11 11:16:08;;;;;;;62.53;33.85;;;;;;;-142.75;100.00;78113.88;5038302;28;20048;-69
2021/11/11 11:18:57;;;;;;;60.55;32.47;;;;;;;-142.75;100.00;78109.94;5043000;28;20056;-69
2021/11/11 11:21:45;;;;;;;65.47;33.33;;;;;;;-142.75;100.00;78088.28;5022238;28;20025;-68
2021/11/11 11:24:20;;;;;;;58.83;32.00;;;;;;;-142.75;100.00;78086.31;5036273;28;20100;-69